デンパサール国際空港の過去48時間の天気

デンパサール国際空港 (Ngurah Rai International Airport)

現在時刻: 12/15 20:49 WITA (12/15 12:49 UTC) 以下の時間は現地時間です。

過去48時間のMETAR気象情報
時間 風向 風速(m/s) 視程 気温(℃) 湿度(%) 気圧(hPa) 天気現象
15 20:00 西南西 3 10km以上 29 74 1010
15 19:30 西南西 3 10km以上 29 74 1009
15 19:00 南西 4 10km以上 29 74 1009
15 18:30 西南西 4 10km以上 29 74 1009
15 18:00 西南西 4 10km以上 29 74 1008
15 17:30 南西 4 10km以上 30 75 1008
15 17:00 西南西 5 10km以上 30 75 1007
15 16:30 西南西 6 10km以上 30 75 1007
15 16:00 西 5 10km以上 31 70 1007
15 15:30 西 6 10km以上 31 70 1007
15 15:00 西南西 6 10km以上 31 70 1007
15 14:30 西 6 10km以上 31 70 1008
15 14:00 西 6 10km以上 31 70 1008
15 13:30 西 6 10km以上 31 70 1008
15 13:00 西 6 10km以上 31 70 1009
15 11:30 西 5 10km以上 31 70 1009
15 11:00 西 5 10km以上 30 75 1010
15 10:30 西 6 10km以上 30 75 1010
15 09:30 西 5 10km以上 30 75 1010
15 08:00 西 4 10km以上 29 79 1010
15 07:30 西 4 10km以上 29 79 1010
15 07:00 西南西 3 10km以上 28 79 1010
15 06:30 西南西 3 10km以上 28 79 1009
15 06:00 西南西 4 10km以上 28 79 1009
15 05:30 西南西 3 10km以上 28 79 1008
15 05:00 西 3 10km以上 28 79 1009
15 04:30 西 3 10km以上 28 79 1008
15 04:00 西 4 10km以上 28 79 1008
15 03:30 西 5 10km以上 28 79 1008
15 03:00 西 3 10km以上 28 84 1009
15 02:30 西南西 2 10km以上 28 84 1009
15 02:00 西南西 3 10km以上 28 84 1009
15 01:30 南西 3 10km以上 28 84 1009
15 01:00 西南西 2 10km以上 28 84 1010
15 00:30 西南西 2 10km以上 28 84 1010
15 00:00 西南西 4 10km以上 29 79 1010
14 23:30 西 4 10km以上 29 79 1011
14 23:00 南西 3 10km以上 29 79 1011
14 22:30 西南西 2 10km以上 29 79 1011
14 22:00 南西 3 10km以上 29 79 1011
14 21:30 南西 3 10km以上 29 79 1011
14 21:00 西南西 2 10km以上 29 79 1010
14 20:30 西南西 2 10km以上 29 79 1010
14 20:00 南西 3 10km以上 29 79 1010
14 19:30 南西 4 10km以上 29 79 1010
14 19:00 南西 4 10km以上 29 79 1009
14 18:30 西南西 4 10km以上 29 79 1009
14 18:00 西南西 3 10km以上 30 75 1008
14 17:30 南西 4 10km以上 30 75 1008
14 17:00 西南西 4 10km以上 30 75 1007
14 16:30 西南西 4 10km以上 30 79 1007
14 16:00 西 5 10km以上 31 70 1007
14 15:30 西 5 10km以上 31 75 1007
14 15:00 西 5 10km以上 31 75 1007
14 14:30 西 6 10km以上 31 70 1007
14 14:00 西 6 10km以上 31 75 1008
14 13:30 西 6 10km以上 31 75 1008
14 13:00 西 6 10km以上 31 75 1008
14 12:30 西 6 10km以上 31 75 1009
14 12:00 西 5 10km以上 31 75 1009
14 11:30 西 5 10km以上 30 79 1009
14 11:00 西 6 10km以上 30 79 1009
14 10:30 西 5 10km以上 31 75 1010
14 10:00 西北西 5 10km以上 30 79 1010
14 09:30 西北西 5 10km以上 30 75 1010
14 09:00 西北西 5 10km以上 29 84 1010
14 08:30 北西 5 10km以上 29 79 1010
14 08:00 西 4 10km以上 29 79 1010
14 07:30 西南西 3 10km以上 27 94 1010 弱い雨
14 07:00 西 4 10km以上 28 84 1010 弱い雨
14 06:30 3 10km以上 28 84 1009 弱い雨
14 06:00 西 3 10km以上 28 84 1009
14 05:30 西 4 10km以上 28 84 1009
14 05:00 西 4 10km以上 28 84 1009
14 04:30 西 5 10km以上 28 84 1009
14 04:00 西 3 10km以上 28 84 1009
14 03:30 西 4 10km以上 28 84 1009
14 03:00 西 3 10km以上 28 84 1009
14 02:30 西 3 10km以上 28 84 1009
14 02:00 西南西 2 10km以上 28 84 1009
14 01:30 西南西 2 10km以上 28 84 1009
14 01:00 西南西 1 10km以上 28 84 1009
14 00:30 南西 2 10km以上 28 84 1009
14 00:00 西南西 2 10km以上 28 84 1010
13 23:30 西南西 2 10km以上 28 84 1010
13 23:00 西南西 2 10km以上 28 84 1010
13 22:30 西南西 2 10km以上 28 84 1010
13 22:00 西南西 2 10km以上 28 84 1010
13 21:30 西南西 2 10km以上 28 79 1010
13 21:00 西南西 2 10km以上 29 74 1010
WADD 151200Z 25005KT 200V300 9999 FEW017 BKN033 29/24 Q1010 NOSIG
WADD 151130Z 24005KT 200V270 9999 FEW017 BKN033 29/24 Q1009 NOSIG
WADD 151100Z 23007KT 180V260 9999 FEW017 BKN033 29/24 Q1009 NOSIG
WADD 151030Z 24008KT 200V270 9999 BKN017 29/24 Q1009 NOSIG
WADD 151000Z 24008KT 190V270 9999 BKN017 29/24 Q1008 NOSIG
WADD 150930Z 23008KT 200V260 9999 BKN017 30/25 Q1008 NOSIG
WADD 150900Z 24009KT 190V270 9999 SCT017 30/25 Q1007 NOSIG
WADD 150830Z 25011KT 210V280 9999 SCT017 30/25 Q1007 NOSIG
WADD 150800Z 26010KT 220V280 9999 SCT017 31/25 Q1007 NOSIG
WADD 150730Z 26011G21KT 220V280 9999 SCT017 31/25 Q1007 NOSIG
WADD 150700Z 25012KT 9999 SCT017 31/25 Q1007 NOSIG
WADD 150630Z 26011KT 220V280 9999 FEW017 BKN030 31/25 Q1008 NOSIG
WADD 150600Z 26012KT 9999 SCT017 31/25 Q1008 NOSIG
WADD 150530Z 26011KT 9999 SCT017 31/25 Q1008 NOSIG
WADD 150500Z 26011KT 9999 SCT017 31/25 Q1009 NOSIG
WADD 150330Z 26010KT 220V280 9999 BKN017 31/25 Q1009 NOSIG
WADD 150300Z 27010KT 9999 BKN017 30/25 Q1010 NOSIG
WADD 150230Z 27011KT 9999 BKN017 30/25 Q1010 NOSIG
WADD 150130Z 26009KT 9999 SCT017 30/25 Q1010 NOSIG
WADD 150000Z 26007KT 9999 SCT017 29/25 Q1010 NOSIG
WADD 142330Z 26007KT 9999 SCT017 29/25 Q1010 NOSIG
WADD 142300Z 25006KT 9999 SCT016 28/24 Q1010 NOSIG
WADD 142230Z 25006KT 9999 SCT016 28/24 Q1009 NOSIG
WADD 142200Z 25007KT 9999 BKN016 28/24 Q1009 NOSIG
WADD 142130Z 25006KT 9999 BKN016 28/24 Q1008 NOSIG
WADD 142100Z 26006KT 9999 SCT016 28/24 Q1009 NOSIG
WADD 142030Z 26006KT 9999 SCT016 28/24 Q1008 NOSIG
WADD 142000Z 26008KT 9999 SCT016 28/24 Q1008 NOSIG
WADD 141930Z 26009KT 9999 SCT016 28/24 Q1008 NOSIG
WADD 141900Z 26006KT 9999 SCT016 28/25 Q1009 NOSIG
WADD 141830Z 25004KT 210V280 9999 SCT016 28/25 Q1009 NOSIG
WADD 141800Z 24005KT 9999 SCT016 28/25 Q1009 NOSIG
WADD 141730Z 22005KT 170V260 9999 SCT017 28/25 Q1009 NOSIG
WADD 141700Z 24004KT 9999 SCT017 28/25 Q1010 NOSIG
WADD 141630Z 24003KT 9999 SCT017 28/25 Q1010 NOSIG
WADD 141600Z 25007KT 9999 SCT017 29/25 Q1010 NOSIG
WADD 141530Z 26008KT 9999 BKN017 29/25 Q1011 NOSIG
WADD 141500Z 23005KT 9999 BKN017 29/25 Q1011 NOSIG
WADD 141430Z 24004KT 9999 SCT017 29/25 Q1011 NOSIG
WADD 141400Z 23005KT 9999 FEW016CB SCT017 29/25 Q1011 RMK CB TO NW NOSIG
WADD 141330Z 23005KT 9999 SCT017 29/25 Q1011 NOSIG
WADD 141300Z 24004KT 9999 FEW017 29/25 Q1010 NOSIG
WADD 141230Z 24004KT 9999 FEW017 29/25 Q1010 NOSIG
WADD 141200Z 23005KT 200V280 9999 FEW017 BKN033 29/25 Q1010 NOSIG
WADD 141130Z 23007KT 200V260 9999 FEW017 BKN033 29/25 Q1010 NOSIG
WADD 141100Z 23007KT 200V270 9999 SCT016 29/25 Q1009 NOSIG
WADD 141030Z 24008KT 9999 FEW017 BKN033 29/25 Q1009 NOSIG
WADD 141000Z 25006KT 210V280 9999 FEW017 BKN033 30/25 Q1008 NOSIG
WADD 140930Z 23007KT 200V270 9999 FEW017 BKN033 30/25 Q1008 NOSIG
WADD 140900Z 24008KT 9999 FEW017 BKN033 30/25 Q1007 NOSIG
WADD 140830Z 25008KT 210V280 9999 FEW017 30/26 Q1007 NOSIG
WADD 140800Z 26010KT 9999 FEW017 31/25 Q1007 NOSIG
WADD 140730Z 26010KT 9999 FEW017 31/26 Q1007 NOSIG
WADD 140700Z 26010KT 9999 FEW017 31/26 Q1007 NOSIG
WADD 140630Z 26011KT 9999 FEW017 31/25 Q1007 NOSIG
WADD 140600Z 26012KT 9999 FEW017 31/26 Q1008 NOSIG
WADD 140530Z 26011KT 9999 FEW016 31/26 Q1008 NOSIG
WADD 140500Z 26011KT 9999 FEW017 31/26 Q1008 NOSIG
WADD 140430Z 27012KT 9999 FEW017 31/26 Q1009 NOSIG
WADD 140400Z 27010KT 9999 FEW017 31/26 Q1009 NOSIG
WADD 140330Z 28010KT 230V310 9999 FEW017 30/26 Q1009 NOSIG
WADD 140300Z 28011KT 9999 FEW017 30/26 Q1009 NOSIG
WADD 140230Z 28010KT 260V320 9999 FEW017 31/26 Q1010 NOSIG
WADD 140200Z 29009KT 9999 FEW017 30/26 Q1010 NOSIG
WADD 140130Z 30009KT 9999 SCT016 30/25 Q1010 NOSIG
WADD 140100Z 30009KT 9999 SCT016 29/26 Q1010 NOSIG
WADD 140030Z 31009KT 9999 SCT017 29/25 Q1010 NOSIG
WADD 140000Z 28008KT 9999 SCT017 29/25 Q1010 RERA NOSIG
WADD 132330Z 25005KT 9999 -RA SCT015 BKN018 27/26 Q1010 NOSIG
WADD 132300Z 27007KT 9999 -RA SCT014 BKN017 28/25 Q1010 NOSIG
WADD 132230Z 35006KT 9999 -RA BKN016 28/25 Q1009 NOSIG
WADD 132200Z 26006KT 9999 BKN015 BKN017 28/25 Q1009 NOSIG
WADD 132130Z 27008KT 9999 SCT017 28/25 Q1009 NOSIG
WADD 132100Z 28008KT 9999 BKN017 28/25 Q1009 NOSIG
WADD 132030Z 27009KT 9999 SCT017 28/25 Q1009 NOSIG
WADD 132000Z 26006KT 9999 FEW017 28/25 Q1009 NOSIG
WADD 131930Z 26008KT 9999 FEW017 28/25 Q1009 NOSIG
WADD 131900Z 26005KT 9999 SCT017 28/25 Q1009 NOSIG
WADD 131830Z 26005KT 9999 FEW017 28/25 Q1009 NOSIG
WADD 131800Z 25004KT 9999 FEW017 28/25 Q1009 NOSIG
WADD 131730Z 25004KT 9999 SCT017 28/25 Q1009 NOSIG
WADD 131700Z 24002KT 9999 SCT017 28/25 Q1009 NOSIG
WADD 131630Z 23003KT 9999 SCT017 28/25 Q1009 NOSIG
WADD 131600Z 24004KT 210V280 9999 SCT017 28/25 Q1010 NOSIG
WADD 131530Z 25004KT 9999 FEW017 BKN033 28/25 Q1010 NOSIG
WADD 131500Z 24004KT 210V280 9999 FEW017 BKN033 28/25 Q1010 NOSIG
WADD 131430Z 24004KT 210V280 9999 FEW017 BKN033 28/25 Q1010 NOSIG
WADD 131400Z 24003KT 9999 FEW017 BKN033 28/25 Q1010 NOSIG
WADD 131330Z 24003KT 9999 FEW017 28/24 Q1010 NOSIG
WADD 131300Z 24004KT 200V270 9999 FEW017 BKN033 29/24 Q1010 NOSIG